Time;durP1;ratioP1;P1;durP2;ratioP2;P2;SDS_P1;SDS_P2;PMS_P1;PMS_P2;Temp;Humidity;BMP_temperature;BMP_pressure;BME280_temperature;BME280_humidity;BME280_pressure;Samples;Min_cycle;Max_cycle;Signal;HPM_P1;HPM_P2
2021/01/26 00:01:24;;;;;;;26.85;15.20;;;-0.10;99.90;;;;;;484355;245;28114;-68
2021/01/26 00:03:25;;;;;;;25.42;14.85;;;-0.10;99.90;;;;;;479570;248;27476;-71
2021/01/26 00:05:27;;;;;;;24.60;14.75;;;0.00;99.90;;;;;;484368;245;27492;-69
2021/01/26 00:07:28;;;;;;;24.45;15.70;;;0.00;99.90;;;;;;479510;248;27488;-69
2021/01/26 00:09:29;;;;;;;31.12;21.75;;;0.10;99.90;;;;;;484371;245;27518;-70
2021/01/26 00:11:30;;;;;;;30.17;16.77;;;0.10;99.90;;;;;;479625;248;27512;-69
2021/01/26 00:13:32;;;;;;;30.25;18.20;;;0.10;99.90;;;;;;484499;245;27452;-69
2021/01/26 00:15:33;;;;;;;26.75;15.93;;;0.10;99.90;;;;;;479640;248;28084;-68
2021/01/26 00:17:34;;;;;;;27.75;16.00;;;0.10;99.90;;;;;;484519;245;27895;-69
2021/01/26 00:19:35;;;;;;;27.13;18.20;;;0.10;99.90;;;;;;479584;248;27538;-70
2021/01/26 00:21:37;;;;;;;28.08;16.62;;;0.10;99.90;;;;;;484573;245;27388;-69
2021/01/26 00:23:38;;;;;;;44.25;30.58;;;0.10;99.90;;;;;;479860;248;27477;-69
2021/01/26 00:25:39;;;;;;;32.65;17.85;;;0.10;99.90;;;;;;484695;245;27421;-68
2021/01/26 00:27:41;;;;;;;38.67;29.80;;;0.10;99.90;;;;;;479789;248;27465;-69
2021/01/26 00:29:42;;;;;;;33.95;24.70;;;0.20;99.90;;;;;;484666;245;27880;-71
2021/01/26 00:31:43;;;;;;;31.33;16.92;;;0.20;99.90;;;;;;479774;248;27870;-69
2021/01/26 00:33:44;;;;;;;28.17;18.15;;;0.20;99.90;;;;;;484655;245;27494;-69
2021/01/26 00:35:46;;;;;;;31.92;16.00;;;0.20;99.90;;;;;;479710;248;27490;-69
2021/01/26 00:37:47;;;;;;;28.95;18.00;;;0.20;99.90;;;;;;484475;245;27416;-69
2021/01/26 00:39:48;;;;;;;32.55;19.37;;;0.20;99.90;;;;;;479634;248;27442;-69
2021/01/26 00:41:49;;;;;;;33.90;19.83;;;0.20;99.90;;;;;;484401;245;27376;-69
2021/01/26 00:43:51;;;;;;;36.80;23.02;;;0.20;99.90;;;;;;479637;248;27487;-69
2021/01/26 00:45:52;;;;;;;35.55;21.23;;;0.20;99.90;;;;;;484456;245;27940;-70
2021/01/26 00:47:53;;;;;;;34.45;18.35;;;0.10;99.90;;;;;;479611;248;27928;-69
2021/01/26 00:49:54;;;;;;;43.45;27.58;;;0.10;99.90;;;;;;484421;245;27885;-71
2021/01/26 00:51:56;;;;;;;36.70;23.00;;;0.10;99.90;;;;;;479592;248;27441;-69
2021/01/26 00:53:57;;;;;;;36.70;20.58;;;0.10;99.90;;;;;;484472;245;27436;-70
2021/01/26 00:55:58;;;;;;;43.00;21.60;;;0.10;99.90;;;;;;479611;248;27449;-70
2021/01/26 00:57:59;;;;;;;40.28;20.80;;;0.10;99.90;;;;;;484427;245;27586;-69
2021/01/26 01:00:01;;;;;;;33.97;19.55;;;0.20;99.90;;;;;;479593;248;27531;-69
2021/01/26 01:02:02;;;;;;;34.38;18.92;;;0.20;99.90;;;;;;484437;245;28693;-68
2021/01/26 01:04:03;;;;;;;31.48;16.73;;;0.20;99.90;;;;;;479611;248;27533;-69
2021/01/26 01:06:04;;;;;;;38.63;20.25;;;0.20;99.90;;;;;;484455;245;27530;-69
2021/01/26 01:08:06;;;;;;;31.73;20.55;;;0.20;99.90;;;;;;479564;248;27473;-69
2021/01/26 01:10:07;;;;;;;36.80;18.62;;;0.20;99.90;;;;;;484360;245;27490;-69
2021/01/26 01:12:08;;;;;;;36.08;18.80;;;0.20;99.90;;;;;;479643;248;27513;-70
2021/01/26 01:14:09;;;;;;;31.30;17.90;;;0.20;99.90;;;;;;484514;245;27491;-69
2021/01/26 01:16:11;;;;;;;32.58;18.75;;;0.20;99.90;;;;;;479657;248;27921;-69
2021/01/26 01:18:12;;;;;;;31.05;18.00;;;0.30;99.90;;;;;;484428;242;27915;-69
2021/01/26 01:20:13;;;;;;;40.12;20.80;;;0.20;99.90;;;;;;479558;248;27555;-69
2021/01/26 01:22:14;;;;;;;39.72;27.80;;;0.30;99.90;;;;;;484475;245;27420;-70
2021/01/26 01:24:16;;;;;;;37.90;26.83;;;0.30;99.90;;;;;;479508;248;27457;-70
2021/01/26 01:26:17;;;;;;;34.15;18.27;;;0.40;99.90;;;;;;484404;245;27422;-69
2021/01/26 01:28:18;;;;;;;30.12;17.40;;;0.40;99.90;;;;;;479574;248;27457;-69
2021/01/26 01:30:19;;;;;;;31.85;17.95;;;0.40;99.90;;;;;;484438;245;27401;-69
2021/01/26 01:32:21;;;;;;;32.80;18.02;;;0.40;99.90;;;;;;479643;248;27984;-70
2021/01/26 01:34:22;;;;;;;33.08;18.10;;;0.30;99.90;;;;;;484456;245;27896;-70
2021/01/26 01:36:23;;;;;;;31.48;19.80;;;0.40;99.90;;;;;;479585;248;27552;-68
2021/01/26 01:38:25;;;;;;;29.00;17.27;;;0.40;99.90;;;;;;484455;245;27436;-69
2021/01/26 01:40:26;;;;;;;31.48;17.75;;;0.40;99.90;;;;;;479504;248;27814;-69
2021/01/26 01:42:27;;;;;;;28.52;17.42;;;0.50;99.90;;;;;;484312;245;27434;-69
2021/01/26 01:44:28;;;;;;;27.92;17.23;;;0.50;99.90;;;;;;479643;248;27602;-69
2021/01/26 01:46:30;;;;;;;31.95;17.17;;;0.50;99.90;;;;;;484539;245;27982;-69
2021/01/26 01:48:31;;;;;;;31.90;18.55;;;0.50;99.90;;;;;;479748;248;28029;-70
2021/01/26 01:50:32;;;;;;;33.92;18.48;;;0.50;99.90;;;;;;484557;245;27926;-69
2021/01/26 01:52:33;;;;;;;33.25;17.85;;;0.60;99.90;;;;;;479785;248;27539;-69
2021/01/26 01:54:35;;;;;;;32.90;16.83;;;0.60;99.90;;;;;;484649;245;27419;-69
2021/01/26 01:56:36;;;;;;;32.30;17.50;;;0.60;99.90;;;;;;479853;248;27439;-68
2021/01/26 01:58:37;;;;;;;31.48;17.00;;;0.60;99.90;;;;;;484625;245;27436;-69
2021/01/26 02:00:38;;;;;;;30.33;17.27;;;0.60;99.90;;;;;;479708;248;27413;-68
2021/01/26 02:02:40;;;;;;;30.02;15.85;;;0.50;99.90;;;;;;484602;245;27951;-69
2021/01/26 02:04:41;;;;;;;33.33;18.37;;;0.50;99.90;;;;;;479731;248;28568;-70
2021/01/26 02:06:42;;;;;;;33.80;17.40;;;0.60;99.90;;;;;;484553;245;27388;-69
2021/01/26 02:08:43;;;;;;;29.25;16.77;;;0.50;99.90;;;;;;479660;248;27481;-70
2021/01/26 02:10:45;;;;;;;33.83;17.05;;;0.50;99.90;;;;;;484428;245;27601;-69
2021/01/26 02:12:46;;;;;;;29.70;17.45;;;0.50;99.90;;;;;;479616;248;27445;-69
2021/01/26 02:14:47;;;;;;;25.20;15.85;;;0.50;99.90;;;;;;484446;245;27491;-70
2021/01/26 02:16:48;;;;;;;35.70;17.58;;;0.60;99.90;;;;;;479596;248;27457;-69
2021/01/26 02:18:50;;;;;;;34.53;18.83;;;0.60;99.90;;;;;;484469;245;27852;-69
2021/01/26 02:20:51;;;;;;;33.20;18.42;;;0.60;99.90;;;;;;479560;248;28673;-69
2021/01/26 02:22:52;;;;;;;26.23;17.30;;;0.50;99.90;;;;;;484432;245;27408;-69
2021/01/26 02:24:53;;;;;;;34.22;17.27;;;0.50;99.90;;;;;;479588;248;27456;-69
2021/01/26 02:26:55;;;;;;;27.52;16.33;;;0.60;99.90;;;;;;484467;245;27479;-68
2021/01/26 02:28:56;;;;;;;30.02;17.35;;;0.60;99.90;;;;;;479621;248;27596;-70
2021/01/26 02:30:57;;;;;;;29.65;15.77;;;0.60;99.90;;;;;;484347;245;27781;-70
2021/01/26 02:32:58;;;;;;;25.70;15.07;;;0.60;99.90;;;;;;479572;246;27469;-68
2021/01/26 02:35:00;;;;;;;30.10;15.35;;;0.60;99.90;;;;;;484440;245;28610;-69
2021/01/26 02:37:01;;;;;;;31.08;17.17;;;0.70;99.90;;;;;;479592;248;28045;-69
2021/01/26 02:39:02;;;;;;;33.25;16.67;;;0.70;99.90;;;;;;484450;245;27494;-70
2021/01/26 02:41:03;;;;;;;28.52;16.02;;;0.60;99.90;;;;;;479514;248;27471;-70
2021/01/26 02:43:05;;;;;;;28.62;16.48;;;0.60;99.90;;;;;;484442;245;27504;-70
2021/01/26 02:45:06;;;;;;;31.83;17.00;;;0.70;99.90;;;;;;479689;248;27540;-70
2021/01/26 02:47:07;;;;;;;29.70;16.42;;;0.70;99.90;;;;;;484528;245;27488;-68
2021/01/26 02:49:08;;;;;;;34.58;17.58;;;0.70;99.90;;;;;;479699;248;27890;-70
2021/01/26 02:51:10;;;;;;;30.20;16.42;;;0.70;99.90;;;;;;484396;245;27991;-68
2021/01/26 02:53:11;;;;;;;37.90;15.38;;;0.60;99.90;;;;;;479584;248;27465;-69
2021/01/26 02:55:13;;;;;;;25.95;14.80;;;0.70;99.90;;;;;;484400;245;27597;-68
2021/01/26 02:57:14;;;;;;;29.45;15.57;;;0.60;99.90;;;;;;479530;248;27547;-69
2021/01/26 02:59:15;;;;;;;30.25;15.73;;;0.70;99.90;;;;;;484366;245;27792;-68
2021/01/26 03:01:16;;;;;;;28.95;15.30;;;0.70;99.90;;;;;;479533;248;27457;-69
2021/01/26 03:03:17;;;;;;;26.35;15.93;;;0.70;99.90;;;;;;484450;245;27431;-69
2021/01/26 03:05:19;;;;;;;29.20;16.92;;;0.70;99.90;;;;;;479563;248;28003;-68
2021/01/26 03:07:20;;;;;;;31.52;15.45;;;0.70;99.90;;;;;;484486;245;27983;-69
2021/01/26 03:09:21;;;;;;;28.30;17.02;;;0.60;99.90;;;;;;479604;248;27473;-70
2021/01/26 03:11:22;;;;;;;28.35;16.65;;;0.60;99.90;;;;;;484387;245;27523;-69
2021/01/26 03:13:24;;;;;;;23.92;14.65;;;0.70;99.90;;;;;;479587;248;27492;-69
2021/01/26 03:15:25;;;;;;;25.33;15.00;;;0.70;99.90;;;;;;484450;245;27432;-68
2021/01/26 03:17:26;;;;;;;25.27;14.60;;;0.70;99.90;;;;;;479626;248;27489;-68
2021/01/26 03:19:27;;;;;;;27.77;15.18;;;0.70;99.90;;;;;;484537;245;27439;-68
2021/01/26 03:21:29;;;;;;;24.05;13.38;;;0.80;99.90;;;;;;479600;248;27939;-69
2021/01/26 03:23:30;;;;;;;31.10;15.48;;;0.80;99.90;;;;;;484460;245;28013;-71
2021/01/26 03:25:31;;;;;;;27.50;14.40;;;0.80;99.90;;;;;;479629;248;27523;-68
2021/01/26 03:27:32;;;;;;;25.25;15.10;;;0.80;99.90;;;;;;484467;245;27432;-69
2021/01/26 03:29:34;;;;;;;27.60;14.65;;;0.80;99.90;;;;;;479647;248;27453;-68
2021/01/26 03:31:35;;;;;;;26.05;13.50;;;0.80;99.90;;;;;;484476;245;27456;-69
2021/01/26 03:33:36;;;;;;;25.23;14.70;;;0.80;99.90;;;;;;479730;248;27462;-69
2021/01/26 03:35:37;;;;;;;23.40;13.88;;;0.80;99.90;;;;;;484604;245;27821;-68
2021/01/26 03:37:39;;;;;;;26.55;14.52;;;0.90;99.90;;;;;;479759;248;27940;-68
2021/01/26 03:39:40;;;;;;;33.28;15.23;;;0.90;99.90;;;;;;484480;245;28684;-68
2021/01/26 03:41:41;;;;;;;25.88;14.02;;;0.90;99.90;;;;;;479543;248;27485;-69
2021/01/26 03:43:42;;;;;;;25.98;14.10;;;0.80;99.90;;;;;;484480;245;27416;-68
2021/01/26 03:45:44;;;;;;;26.17;14.82;;;0.80;99.90;;;;;;479644;248;27481;-68
2021/01/26 03:47:45;;;;;;;27.02;13.75;;;0.70;99.90;;;;;;484403;245;27546;-69
2021/01/26 03:49:46;;;;;;;33.72;15.13;;;0.70;99.90;;;;;;479597;248;27462;-68
2021/01/26 03:51:47;;;;;;;27.67;14.65;;;0.80;99.90;;;;;;484380;245;27980;-68
2021/01/26 03:53:49;;;;;;;26.02;13.57;;;0.80;99.90;;;;;;479584;248;29119;-70
2021/01/26 03:55:50;;;;;;;30.05;14.70;;;0.80;99.90;;;;;;484448;245;27448;-68
2021/01/26 03:57:51;;;;;;;23.02;12.70;;;0.80;99.90;;;;;;479608;248;27540;-69
2021/01/26 03:59:52;;;;;;;25.05;13.62;;;0.90;99.90;;;;;;484442;245;27515;-69
2021/01/26 04:01:54;;;;;;;26.58;13.35;;;0.90;99.90;;;;;;479544;248;27453;-69
2021/01/26 04:03:55;;;;;;;26.77;12.48;;;0.90;99.90;;;;;;484474;245;27637;-70
2021/01/26 04:05:56;;;;;;;26.52;14.25;;;0.90;99.90;;;;;;479625;248;27434;-68
2021/01/26 04:07:57;;;;;;;26.05;15.68;;;0.90;99.90;;;;;;484409;245;28126;-69
2021/01/26 04:09:59;;;;;;;23.73;13.55;;;1.00;99.90;;;;;;479579;248;28088;-70
2021/01/26 04:12:00;;;;;;;28.85;14.80;;;1.00;99.90;;;;;;484372;245;27420;-68
2021/01/26 04:14:01;;;;;;;22.23;12.43;;;1.00;99.90;;;;;;479602;248;27440;-71
2021/01/26 04:16:03;;;;;;;23.65;12.23;;;1.00;99.90;;;;;;484446;245;27495;-70
2021/01/26 04:18:04;;;;;;;22.17;12.55;;;0.90;99.90;;;;;;479615;248;27518;-69
2021/01/26 04:20:05;;;;;;;25.75;13.10;;;0.90;99.90;;;;;;484427;245;27427;-68
2021/01/26 04:22:06;;;;;;;24.05;13.65;;;0.80;99.90;;;;;;479648;248;27453;-68
2021/01/26 04:24:08;;;;;;;32.45;20.30;;;0.90;99.90;;;;;;484516;245;27965;-68
2021/01/26 04:26:09;;;;;;;30.27;21.58;;;0.90;99.90;;;;;;479746;248;27916;-68
2021/01/26 04:28:10;;;;;;;31.20;22.23;;;0.90;99.90;;;;;;484443;245;27423;-69
2021/01/26 04:30:11;;;;;;;28.30;15.10;;;0.90;99.90;;;;;;479502;248;27544;-68
2021/01/26 04:32:13;;;;;;;22.13;13.10;;;0.90;99.90;;;;;;484376;245;27414;-69
2021/01/26 04:34:14;;;;;;;25.45;12.93;;;0.90;99.90;;;;;;479630;248;27521;-71
2021/01/26 04:36:15;;;;;;;21.02;11.05;;;0.90;99.90;;;;;;484428;245;27527;-69
2021/01/26 04:38:16;;;;;;;25.48;13.55;;;0.90;99.90;;;;;;479554;248;28001;-70
2021/01/26 04:40:18;;;;;;;22.90;12.15;;;0.90;99.90;;;;;;484372;245;28100;-69
2021/01/26 04:42:19;;;;;;;22.80;15.10;;;0.90;99.90;;;;;;479627;248;27560;-70
2021/01/26 04:44:20;;;;;;;26.02;12.40;;;0.90;99.90;;;;;;484441;245;27397;-69
2021/01/26 04:46:21;;;;;;;21.65;11.60;;;1.00;99.90;;;;;;479620;248;27493;-69
2021/01/26 04:48:23;;;;;;;17.52;11.00;;;1.00;99.90;;;;;;484555;245;27840;-70
2021/01/26 04:50:24;;;;;;;19.33;11.88;;;1.00;99.90;;;;;;479598;248;27486;-68
2021/01/26 04:52:25;;;;;;;18.77;11.10;;;1.00;99.90;;;;;;484439;245;27432;-70
2021/01/26 04:54:26;;;;;;;22.23;11.23;;;1.00;99.90;;;;;;479650;248;27849;-69
2021/01/26 04:56:28;;;;;;;22.13;11.12;;;1.00;99.90;;;;;;484522;245;27940;-69
2021/01/26 04:58:29;;;;;;;19.10;11.12;;;0.90;99.90;;;;;;479730;248;27462;-70
2021/01/26 05:00:30;;;;;;;17.62;10.82;;;0.90;99.90;;;;;;484540;245;27373;-69
2021/01/26 05:02:31;;;;;;;20.30;10.60;;;0.90;99.90;;;;;;479768;248;27466;-70
2021/01/26 05:04:33;;;;;;;18.62;10.35;;;1.00;99.90;;;;;;484580;245;27467;-70
2021/01/26 05:06:34;;;;;;;18.62;10.82;;;1.00;99.90;;;;;;479759;248;27488;-69
2021/01/26 05:08:35;;;;;;;18.75;11.82;;;1.00;99.90;;;;;;484597;245;27485;-70
2021/01/26 05:10:36;;;;;;;18.92;9.85;;;1.00;99.90;;;;;;479727;248;28020;-69
2021/01/26 05:12:38;;;;;;;19.50;9.90;;;1.00;99.90;;;;;;484594;245;28016;-69
2021/01/26 05:14:39;;;;;;;22.62;10.93;;;1.00;99.90;;;;;;479730;248;27501;-69
2021/01/26 05:16:40;;;;;;;20.48;9.85;;;1.00;99.90;;;;;;484471;245;27414;-69
2021/01/26 05:18:41;;;;;;;22.62;12.45;;;1.00;99.90;;;;;;479617;248;27550;-71
2021/01/26 05:20:43;;;;;;;36.42;23.98;;;1.00;99.90;;;;;;484415;245;27408;-69
2021/01/26 05:22:44;;;;;;;24.02;17.75;;;0.90;99.90;;;;;;479568;244;27581;-68
2021/01/26 05:24:45;;;;;;;17.50;10.88;;;1.00;99.90;;;;;;484349;245;27611;-70
2021/01/26 05:26:46;;;;;;;17.52;10.65;;;1.00;99.90;;;;;;479579;248;28000;-69
2021/01/26 05:28:48;;;;;;;18.33;10.32;;;1.00;99.90;;;;;;484407;245;28239;-71
2021/01/26 05:31:04;;;;;;;16.23;9.80;;;1.00;99.90;;;;;;479565;248;27516;-70
2021/01/26 05:32:56;;;;;;;20.35;16.30;;;1.00;99.90;;;;;;483883;245;27989;-69
2021/01/26 05:34:57;;;;;;;19.25;10.70;;;1.00;99.90;;;;;;479606;248;27454;-70
2021/01/26 05:36:59;;;;;;;23.58;14.00;;;1.00;99.90;;;;;;484393;245;27411;-69
2021/01/26 05:39:00;;;;;;;30.05;20.70;;;1.00;99.90;;;;;;479590;248;27525;-69
2021/01/26 05:41:01;;;;;;;23.55;16.60;;;1.00;99.90;;;;;;484365;245;27515;-69
2021/01/26 05:43:02;;;;;;;26.95;17.50;;;1.10;99.90;;;;;;479616;248;27633;-70
2021/01/26 05:45:04;;;;;;;16.35;12.95;;;1.10;99.90;;;;;;484443;245;27995;-70
2021/01/26 05:47:05;;;;;;;14.90;10.40;;;1.10;99.90;;;;;;479561;248;28042;-69
2021/01/26 05:49:06;;;;;;;23.25;10.23;;;1.00;99.90;;;;;;484394;245;27467;-68
2021/01/26 05:51:07;;;;;;;17.50;9.68;;;1.10;99.90;;;;;;479502;248;27544;-69
2021/01/26 05:53:09;;;;;;;14.02;9.40;;;1.00;99.90;;;;;;484480;245;27491;-70
2021/01/26 05:55:10;;;;;;;20.08;10.02;;;1.00;99.90;;;;;;479713;248;27548;-69
2021/01/26 05:57:11;;;;;;;19.85;15.75;;;1.00;99.90;;;;;;484517;245;27488;-69
2021/01/26 05:59:13;;;;;;;19.27;11.70;;;1.00;99.90;;;;;;479705;248;27556;-69
2021/01/26 06:01:14;;;;;;;13.98;9.70;;;1.00;99.90;;;;;;484424;243;28305;-70
2021/01/26 06:03:15;;;;;;;16.90;9.60;;;1.00;99.90;;;;;;479630;248;28002;-70
2021/01/26 06:05:16;;;;;;;15.65;10.13;;;1.00;99.90;;;;;;484419;245;29072;-70
2021/01/26 06:07:19;;;;;;;22.87;19.60;;;1.00;99.90;;;;;;479551;248;27453;-69
2021/01/26 06:09:19;;;;;;;15.13;11.85;;;1.10;99.90;;;;;;484350;245;27420;-69
2021/01/26 06:11:20;;;;;;;24.35;21.00;;;1.10;99.90;;;;;;479545;248;27469;-70
2021/01/26 06:13:21;;;;;;;15.20;11.20;;;1.10;99.90;;;;;;484447;245;27765;-70
2021/01/26 06:15:23;;;;;;;14.95;9.32;;;1.10;99.90;;;;;;479575;248;27464;-69
2021/01/26 06:17:24;;;;;;;23.45;8.90;;;1.00;99.90;;;;;;484401;245;27535;-69
2021/01/26 06:19:25;;;;;;;16.37;8.98;;;1.00;99.90;;;;;;479621;248;27944;-69
2021/01/26 06:21:26;;;;;;;16.33;8.65;;;1.10;99.90;;;;;;484391;245;27993;-69
2021/01/26 06:23:28;;;;;;;15.98;10.43;;;1.10;99.90;;;;;;479583;244;27445;-70
2021/01/26 06:25:29;;;;;;;14.10;10.00;;;1.10;99.90;;;;;;484429;245;27505;-69
2021/01/26 06:27:30;;;;;;;21.08;16.37;;;1.10;99.90;;;;;;479617;248;27457;-70
2021/01/26 06:29:31;;;;;;;16.40;9.75;;;1.10;99.90;;;;;;484517;245;27400;-69
2021/01/26 06:31:33;;;;;;;28.02;21.60;;;1.10;99.90;;;;;;479651;248;27578;-69
2021/01/26 06:33:34;;;;;;;15.43;9.23;;;1.20;99.90;;;;;;484471;245;27452;-70
2021/01/26 06:35:35;;;;;;;15.20;8.68;;;1.20;99.90;;;;;;479661;248;27929;-69
2021/01/26 06:37:36;;;;;;;14.77;8.68;;;1.20;99.90;;;;;;484637;245;27943;-70
2021/01/26 06:39:38;;;;;;;15.50;9.18;;;1.10;99.90;;;;;;479773;248;27865;-69
2021/01/26 06:41:39;;;;;;;16.25;9.20;;;1.10;99.90;;;;;;484571;245;27420;-69
2021/01/26 06:43:40;;;;;;;16.27;7.85;;;1.20;99.90;;;;;;479744;248;27437;-69
2021/01/26 06:45:41;;;;;;;13.50;8.27;;;1.10;99.90;;;;;;484547;245;27417;-69
2021/01/26 06:47:43;;;;;;;10.75;8.30;;;1.10;99.90;;;;;;479672;248;27481;-70
2021/01/26 06:49:44;;;;;;;15.07;7.20;;;1.10;99.90;;;;;;484416;245;27408;-69
2021/01/26 06:51:45;;;;;;;16.27;8.20;;;1.10;99.90;;;;;;479568;248;27669;-70
2021/01/26 06:53:46;;;;;;;11.45;7.72;;;1.20;99.90;;;;;;484422;245;27443;-70
2021/01/26 06:55:48;;;;;;;12.90;7.55;;;1.20;99.90;;;;;;479591;248;27474;-69
2021/01/26 06:57:49;;;;;;;11.40;7.50;;;1.10;99.90;;;;;;484415;245;27986;-69
2021/01/26 06:59:50;;;;;;;15.65;8.57;;;1.10;99.90;;;;;;479604;248;27969;-69
2021/01/26 07:01:51;;;;;;;11.70;7.30;;;1.10;99.90;;;;;;484373;245;27600;-69
2021/01/26 07:03:53;;;;;;;14.70;7.75;;;1.00;99.90;;;;;;479510;248;27476;-69
2021/01/26 07:05:54;;;;;;;14.55;8.00;;;1.10;99.90;;;;;;484438;245;27396;-70
2021/01/26 07:07:55;;;;;;;10.70;7.28;;;1.10;99.90;;;;;;479619;248;27459;-70
2021/01/26 07:09:56;;;;;;;13.48;7.45;;;1.10;99.90;;;;;;484447;245;27420;-69
2021/01/26 07:11:58;;;;;;;13.88;7.10;;;1.10;99.90;;;;;;479566;248;27465;-69
2021/01/26 07:13:59;;;;;;;14.85;7.95;;;1.10;99.90;;;;;;484439;245;27396;-70
2021/01/26 07:16:00;;;;;;;16.30;12.35;;;1.10;99.90;;;;;;479576;248;27881;-68
2021/01/26 07:18:01;;;;;;;15.23;13.38;;;1.10;99.90;;;;;;484417;245;28083;-70
2021/01/26 07:20:03;;;;;;;12.77;8.73;;;1.10;99.90;;;;;;479565;248;28100;-70
2021/01/26 07:22:04;;;;;;;16.27;13.82;;;1.10;99.90;;;;;;484438;245;27495;-69
2021/01/26 07:24:05;;;;;;;14.07;6.53;;;1.10;99.90;;;;;;479598;248;27494;-69
2021/01/26 07:26:06;;;;;;;11.63;6.62;;;1.10;99.90;;;;;;484548;245;27502;-69
2021/01/26 07:28:08;;;;;;;13.15;6.78;;;1.00;99.90;;;;;;479730;248;27896;-71
2021/01/26 07:30:09;;;;;;;10.40;6.37;;;1.00;99.90;;;;;;484551;245;27511;-70
2021/01/26 07:32:10;;;;;;;16.10;7.68;;;1.00;99.90;;;;;;479779;248;27573;-69
2021/01/26 07:34:11;;;;;;;9.65;6.50;;;1.00;99.90;;;;;;484258;245;28016;-69
2021/01/26 07:36:13;;;;;;;10.98;7.10;;;1.00;99.90;;;;;;479532;248;28709;-69
2021/01/26 07:38:14;;;;;;;8.73;5.93;;;1.00;99.90;;;;;;484448;245;27840;-68
2021/01/26 07:40:15;;;;;;;8.57;6.35;;;1.00;99.90;;;;;;479565;248;28035;-69
2021/01/26 07:42:16;;;;;;;13.88;10.38;;;1.00;99.90;;;;;;484351;245;27421;-70
2021/01/26 07:44:18;;;;;;;15.32;11.98;;;1.10;99.90;;;;;;479550;248;27457;-69
2021/01/26 07:46:19;;;;;;;9.70;6.70;;;1.00;99.90;;;;;;484442;245;27413;-70
2021/01/26 07:48:20;;;;;;;24.50;20.50;;;1.00;99.90;;;;;;479603;248;27425;-69
2021/01/26 07:50:22;;;;;;;21.40;19.15;;;1.10;99.90;;;;;;484384;245;28019;-69
2021/01/26 07:52:23;;;;;;;19.12;15.73;;;1.00;99.90;;;;;;479606;248;27465;-70
2021/01/26 07:54:24;;;;;;;14.02;7.15;;;1.10;99.90;;;;;;484432;245;27892;-70
2021/01/26 07:56:25;;;;;;;13.30;6.70;;;1.10;99.90;;;;;;479620;248;27935;-69
2021/01/26 07:58:27;;;;;;;13.77;7.15;;;1.00;99.90;;;;;;484545;245;29030;-68
2021/01/26 08:00:28;;;;;;;7.97;5.55;;;1.00;99.90;;;;;;479681;248;27524;-68
2021/01/26 08:02:29;;;;;;;14.05;6.57;;;1.10;99.90;;;;;;484626;245;27423;-69
2021/01/26 08:04:30;;;;;;;9.10;5.47;;;1.10;99.90;;;;;;479803;248;27433;-70
2021/01/26 08:06:32;;;;;;;11.25;6.62;;;1.10;99.90;;;;;;484653;245;27420;-71
2021/01/26 08:08:33;;;;;;;11.90;7.90;;;1.10;99.90;;;;;;479817;248;27410;-71
2021/01/26 08:10:34;;;;;;;14.35;8.65;;;1.00;99.90;;;;;;484548;245;27500;-70
2021/01/26 08:12:36;;;;;;;11.00;6.03;;;1.00;99.90;;;;;;479741;248;27615;-72
2021/01/26 08:14:37;;;;;;;10.70;6.60;;;1.00;99.90;;;;;;484503;245;27537;-70
2021/01/26 08:16:38;;;;;;;11.32;6.12;;;1.00;99.90;;;;;;479646;248;27921;-71
2021/01/26 08:18:39;;;;;;;12.82;6.85;;;1.10;99.90;;;;;;484476;245;27832;-68
2021/01/26 08:20:40;;;;;;;15.23;10.32;;;1.10;99.90;;;;;;479568;248;28028;-70
2021/01/26 08:22:42;;;;;;;9.73;8.18;;;1.10;99.90;;;;;;484424;245;27521;-71
2021/01/26 08:24:44;;;;;;;17.75;10.85;;;1.20;99.90;;;;;;475778;238;27539;-68
2021/01/26 08:26:44;;;;;;;12.55;7.07;;;1.20;99.90;;;;;;479715;248;27451;-69
2021/01/26 08:28:45;;;;;;;14.02;9.30;;;1.30;99.90;;;;;;479754;248;27388;-68
2021/01/26 08:30:50;;;;;;;15.80;8.70;;;1.20;99.90;;;;;;479661;248;27492;-68
2021/01/26 08:32:48;;;;;;;11.20;6.35;;;1.30;99.90;;;;;;479419;248;27445;-70
2021/01/26 08:34:49;;;;;;;9.65;5.60;;;1.20;99.90;;;;;;479588;247;27388;-69
2021/01/26 08:36:50;;;;;;;8.48;5.15;;;1.20;99.90;;;;;;479682;248;28024;-70
2021/01/26 08:38:52;;;;;;;14.27;8.18;;;1.20;99.90;;;;;;470340;249;28210;-70
2021/01/26 08:40:53;;;;;;;20.30;18.27;;;1.30;99.90;;;;;;470326;252;27937;-69
2021/01/26 08:42:54;;;;;;;18.80;13.80;;;1.40;99.90;;;;;;470379;252;27448;-69
2021/01/26 08:44:55;;;;;;;16.55;14.75;;;1.40;99.90;;;;;;470388;252;27551;-70
2021/01/26 08:46:57;;;;;;;15.85;9.90;;;1.40;99.90;;;;;;470421;252;27452;-69
2021/01/26 08:48:58;;;;;;;9.07;5.57;;;1.30;99.90;;;;;;470418;252;27560;-70
2021/01/26 08:50:59;;;;;;;10.18;6.03;;;1.30;99.90;;;;;;470322;252;27466;-69
2021/01/26 08:53:00;;;;;;;10.75;5.72;;;1.30;99.90;;;;;;470756;252;27419;-69
2021/01/26 08:55:02;;;;;;;12.18;8.75;;;1.30;99.90;;;;;;470503;252;27467;-69
2021/01/26 08:57:03;;;;;;;8.55;5.30;;;1.30;99.90;;;;;;470454;252;28097;-69
2021/01/26 08:59:06;;;;;;;7.72;5.37;;;1.30;99.90;;;;;;470434;252;28062;-69
2021/01/26 09:01:05;;;;;;;16.30;14.90;;;1.30;99.90;;;;;;470285;252;29132;-70
2021/01/26 09:03:07;;;;;;;12.32;10.60;;;1.30;99.90;;;;;;470542;252;27439;-68
2021/01/26 09:05:08;;;;;;;7.97;5.18;;;1.20;99.90;;;;;;470499;250;27482;-71
2021/01/26 09:07:09;;;;;;;9.13;5.40;;;1.20;99.90;;;;;;470536;252;27548;-69
2021/01/26 09:09:10;;;;;;;10.85;5.18;;;1.20;99.90;;;;;;470450;252;27459;-70
2021/01/26 09:11:12;;;;;;;10.07;6.22;;;1.20;99.90;;;;;;470346;252;27467;-69
2021/01/26 09:13:13;;;;;;;8.23;5.22;;;1.20;99.90;;;;;;470437;252;27456;-69
2021/01/26 09:15:14;;;;;;;13.23;5.70;;;1.10;99.90;;;;;;470355;249;27455;-70
2021/01/26 09:17:15;;;;;;;12.15;5.65;;;1.20;99.90;;;;;;470410;252;27476;-70
2021/01/26 09:19:17;;;;;;;9.27;4.90;;;1.30;99.90;;;;;;470402;252;27951;-69
2021/01/26 09:21:18;;;;;;;9.73;5.05;;;1.40;99.90;;;;;;470370;252;27989;-69
2021/01/26 09:23:19;;;;;;;12.65;6.15;;;1.30;99.90;;;;;;470382;249;29022;-69
2021/01/26 09:25:20;;;;;;;7.30;5.10;;;1.30;99.90;;;;;;469332;252;27445;-70
2021/01/26 09:27:22;;;;;;;7.22;5.15;;;1.30;99.90;;;;;;466234;253;27569;-69
2021/01/26 09:29:23;;;;;;;6.62;4.68;;;1.40;99.90;;;;;;466164;253;27664;-69
2021/01/26 09:31:24;;;;;;;11.25;5.80;;;1.30;99.90;;;;;;466166;253;27569;-69
2021/01/26 09:33:27;;;;;;;12.05;5.40;;;1.20;99.90;;;;;;466162;252;27626;-69
2021/01/26 09:35:27;;;;;;;9.45;5.60;;;1.40;99.90;;;;;;465979;253;27553;-70
2021/01/26 09:37:28;;;;;;;10.32;5.87;;;1.40;99.90;;;;;;465837;253;27619;-69
2021/01/26 09:39:29;;;;;;;9.20;4.90;;;1.40;99.90;;;;;;466191;253;27546;-69
2021/01/26 09:41:30;;;;;;;13.13;10.52;;;1.50;99.90;;;;;;466336;253;28069;-71
2021/01/26 09:43:32;;;;;;;11.10;10.00;;;1.60;99.90;;;;;;466390;253;28060;-69
2021/01/26 09:45:33;;;;;;;11.23;8.25;;;1.60;99.90;;;;;;466401;253;28228;-69
2021/01/26 09:47:34;;;;;;;11.73;7.85;;;1.60;99.90;;;;;;466408;253;27510;-69
2021/01/26 09:49:35;;;;;;;11.50;5.25;;;1.60;99.90;;;;;;466393;252;27550;-69
2021/01/26 09:51:37;;;;;;;8.77;5.62;;;1.60;99.90;;;;;;466372;253;27547;-71
2021/01/26 09:53:38;;;;;;;7.45;4.78;;;1.60;99.90;;;;;;466381;253;27511;-69
2021/01/26 09:55:40;;;;;;;9.45;4.40;;;1.70;99.90;;;;;;466339;253;27647;-69
2021/01/26 09:57:41;;;;;;;5.95;4.75;;;1.60;99.90;;;;;;466313;253;27543;-70
2021/01/26 09:59:42;;;;;;;5.65;4.47;;;1.80;99.90;;;;;;466278;252;27561;-69
2021/01/26 10:01:43;;;;;;;10.68;4.90;;;1.70;99.90;;;;;;466217;253;27667;-70
2021/01/26 10:03:44;;;;;;;6.45;5.85;;;1.80;99.90;;;;;;466255;252;27992;-69
2021/01/26 10:05:46;;;;;;;9.18;5.90;;;1.90;99.90;;;;;;466225;252;28030;-69
2021/01/26 10:07:47;;;;;;;5.57;4.37;;;1.90;99.90;;;;;;466244;253;28092;-69
2021/01/26 10:09:49;;;;;;;4.30;3.87;;;1.90;99.90;;;;;;466209;253;28086;-69
2021/01/26 10:11:50;;;;;;;7.18;4.10;;;1.90;99.90;;;;;;466134;253;28121;-69
2021/01/26 10:13:51;;;;;;;7.03;4.10;;;2.00;99.90;;;;;;466234;253;27549;-70
2021/01/26 10:15:52;;;;;;;6.87;4.22;;;2.00;99.90;;;;;;466153;253;27546;-68
2021/01/26 10:17:54;;;;;;;6.20;4.00;;;2.10;99.90;;;;;;466255;253;27590;-69
2021/01/26 10:19:55;;;;;;;8.52;6.82;;;2.10;99.90;;;;;;466224;253;27542;-69
2021/01/26 10:21:56;;;;;;;16.05;10.98;;;2.20;99.90;;;;;;466200;253;27573;-68
2021/01/26 10:23:57;;;;;;;12.02;10.52;;;2.30;99.90;;;;;;466257;253;27553;-69
2021/01/26 10:25:59;;;;;;;6.18;4.75;;;2.30;99.90;;;;;;466710;253;27645;-69